sensor_id;sensor_type;location;lat;lon;timestamp;pressure;altitude;pressure_sealevel;temperature;humidity
50268;BME280;36153;50.960;6.220;2023-08-30T00:00:53;99926.06;;;18.41;59.30
50268;BME280;36153;50.960;6.220;2023-08-30T00:03:53;99922.69;;;18.37;59.36
50268;BME280;36153;50.960;6.220;2023-08-30T00:06:54;99920.78;;;18.41;59.27
50268;BME280;36153;50.960;6.220;2023-08-30T00:09:56;99924.25;;;18.43;59.11
50268;BME280;36153;50.960;6.220;2023-08-30T00:12:56;99920.94;;;18.36;58.89
50268;BME280;36153;50.960;6.220;2023-08-30T00:15:56;99915.97;;;18.25;58.99
50268;BME280;36153;50.960;6.220;2023-08-30T00:18:57;99910.91;;;18.19;59.25
50268;BME280;36153;50.960;6.220;2023-08-30T00:21:57;99911.91;;;18.15;59.38
50268;BME280;36153;50.960;6.220;2023-08-30T00:24:57;99916.44;;;18.10;59.18
50268;BME280;36153;50.960;6.220;2023-08-30T00:27:58;99912.34;;;18.00;59.03
50268;BME280;36153;50.960;6.220;2023-08-30T00:30:58;99906.41;;;17.93;59.33
50268;BME280;36153;50.960;6.220;2023-08-30T00:33:58;99909.13;;;17.88;59.71
50268;BME280;36153;50.960;6.220;2023-08-30T00:36:58;99905.63;;;17.88;59.91
50268;BME280;36153;50.960;6.220;2023-08-30T00:39:59;99901.25;;;17.87;59.95
50268;BME280;36153;50.960;6.220;2023-08-30T00:43:00;99904.03;;;17.82;59.84
50268;BME280;36153;50.960;6.220;2023-08-30T00:46:00;99890.13;;;17.77;59.75
50268;BME280;36153;50.960;6.220;2023-08-30T00:49:01;99893.72;;;17.74;59.73
50268;BME280;36153;50.960;6.220;2023-08-30T00:52:04;99887.63;;;17.72;59.41
50268;BME280;36153;50.960;6.220;2023-08-30T00:55:06;99889.44;;;17.70;59.74
50268;BME280;36153;50.960;6.220;2023-08-30T00:58:07;99887.81;;;17.66;59.84
50268;BME280;36153;50.960;6.220;2023-08-30T01:01:08;99884.38;;;17.63;60.00
50268;BME280;36153;50.960;6.220;2023-08-30T01:04:09;99886.13;;;17.64;60.09
50268;BME280;36153;50.960;6.220;2023-08-30T01:07:09;99885.38;;;17.58;60.02
50268;BME280;36153;50.960;6.220;2023-08-30T01:10:10;99881.09;;;17.54;60.57
50268;BME280;36153;50.960;6.220;2023-08-30T01:13:12;99875.88;;;17.53;60.70
50268;BME280;36153;50.960;6.220;2023-08-30T01:16:17;99874.94;;;17.55;60.70
50268;BME280;36153;50.960;6.220;2023-08-30T01:19:41;99871.31;;;17.60;60.57
50268;BME280;36153;50.960;6.220;2023-08-30T01:22:51;99873.19;;;17.54;60.45
50268;BME280;36153;50.960;6.220;2023-08-30T01:29:04;99863.94;;;17.39;60.30
50268;BME280;36153;50.960;6.220;2023-08-30T01:32:08;99867.38;;;17.43;60.51
50268;BME280;36153;50.960;6.220;2023-08-30T01:35:09;99864.75;;;17.43;60.61
50268;BME280;36153;50.960;6.220;2023-08-30T01:38:10;99850.59;;;17.47;60.74
50268;BME280;36153;50.960;6.220;2023-08-30T01:41:11;99854.88;;;17.51;60.89
50268;BME280;36153;50.960;6.220;2023-08-30T01:44:13;99851.31;;;17.54;60.86
50268;BME280;36153;50.960;6.220;2023-08-30T01:47:17;99859.16;;;17.55;61.06
50268;BME280;36153;50.960;6.220;2023-08-30T01:50:17;99853.78;;;17.58;61.05
50268;BME280;36153;50.960;6.220;2023-08-30T01:53:19;99853.00;;;17.55;60.84
50268;BME280;36153;50.960;6.220;2023-08-30T01:56:21;99857.22;;;17.62;60.97
50268;BME280;36153;50.960;6.220;2023-08-30T01:59:21;99850.03;;;17.67;60.78
50268;BME280;36153;50.960;6.220;2023-08-30T02:02:21;99853.66;;;17.63;60.69
50268;BME280;36153;50.960;6.220;2023-08-30T02:05:22;99851.81;;;17.67;60.72
50268;BME280;36153;50.960;6.220;2023-08-30T02:08:26;99851.91;;;17.64;60.80
50268;BME280;36153;50.960;6.220;2023-08-30T02:11:32;99858.03;;;17.64;60.91
50268;BME280;36153;50.960;6.220;2023-08-30T02:14:35;99843.81;;;17.70;60.82
50268;BME280;36153;50.960;6.220;2023-08-30T02:17:37;99846.34;;;17.73;60.89
50268;BME280;36153;50.960;6.220;2023-08-30T02:20:38;99837.47;;;17.77;60.83
50268;BME280;36153;50.960;6.220;2023-08-30T02:23:38;99845.31;;;17.80;60.46
50268;BME280;36153;50.960;6.220;2023-08-30T02:26:39;99836.72;;;17.73;60.38
50268;BME280;36153;50.960;6.220;2023-08-30T02:29:39;99838.56;;;17.70;60.62
50268;BME280;36153;50.960;6.220;2023-08-30T02:32:40;99846.66;;;17.64;60.52
50268;BME280;36153;50.960;6.220;2023-08-30T02:35:40;99838.78;;;17.62;60.54
50268;BME280;36153;50.960;6.220;2023-08-30T02:38:40;99837.00;;;17.63;60.39
50268;BME280;36153;50.960;6.220;2023-08-30T02:41:41;99832.78;;;17.57;60.20
50268;BME280;36153;50.960;6.220;2023-08-30T02:44:41;99835.50;;;17.54;60.38
50268;BME280;36153;50.960;6.220;2023-08-30T02:47:44;99836.28;;;17.57;60.33
50268;BME280;36153;50.960;6.220;2023-08-30T02:50:45;99836.13;;;17.64;60.46
50268;BME280;36153;50.960;6.220;2023-08-30T02:53:45;99838.50;;;17.71;60.13
50268;BME280;36153;50.960;6.220;2023-08-30T02:56:45;99829.56;;;17.79;60.20
50268;BME280;36153;50.960;6.220;2023-08-30T02:59:46;99824.03;;;17.86;59.83
50268;BME280;36153;50.960;6.220;2023-08-30T03:02:46;99818.66;;;17.91;59.91
50268;BME280;36153;50.960;6.220;2023-08-30T03:05:46;99817.44;;;18.03;59.72
50268;BME280;36153;50.960;6.220;2023-08-30T03:08:47;99817.19;;;18.12;59.76
50268;BME280;36153;50.960;6.220;2023-08-30T03:11:47;99804.53;;;18.23;59.85
50268;BME280;36153;50.960;6.220;2023-08-30T03:14:47;99804.34;;;18.30;59.58
50268;BME280;36153;50.960;6.220;2023-08-30T03:17:48;99800.50;;;18.40;59.19
50268;BME280;36153;50.960;6.220;2023-08-30T03:20:48;99804.56;;;18.50;59.27
50268;BME280;36153;50.960;6.220;2023-08-30T03:23:48;99800.69;;;18.60;58.93
50268;BME280;36153;50.960;6.220;2023-08-30T03:26:49;99799.78;;;18.62;58.88
50268;BME280;36153;50.960;6.220;2023-08-30T03:29:49;99796.97;;;18.68;58.69
50268;BME280;36153;50.960;6.220;2023-08-30T03:32:49;99799.59;;;18.68;58.63
50268;BME280;36153;50.960;6.220;2023-08-30T03:35:50;99797.81;;;18.68;58.89
50268;BME280;36153;50.960;6.220;2023-08-30T03:38:50;99795.84;;;18.75;58.86
50268;BME280;36153;50.960;6.220;2023-08-30T03:41:51;99791.31;;;18.79;58.66
50268;BME280;36153;50.960;6.220;2023-08-30T03:44:51;99791.97;;;18.85;58.38
50268;BME280;36153;50.960;6.220;2023-08-30T03:47:52;99790.19;;;18.87;58.45
50268;BME280;36153;50.960;6.220;2023-08-30T03:50:53;99789.25;;;18.88;58.36
50268;BME280;36153;50.960;6.220;2023-08-30T03:53:54;99782.13;;;18.92;58.21
50268;BME280;36153;50.960;6.220;2023-08-30T03:56:56;99784.69;;;18.93;57.92
50268;BME280;36153;50.960;6.220;2023-08-30T03:59:56;99786.53;;;18.91;58.01
50268;BME280;36153;50.960;6.220;2023-08-30T04:02:57;99789.84;;;18.97;58.07
50268;BME280;36153;50.960;6.220;2023-08-30T04:05:57;99794.16;;;18.99;57.88
50268;BME280;36153;50.960;6.220;2023-08-30T04:08:57;99781.03;;;18.98;58.08
50268;BME280;36153;50.960;6.220;2023-08-30T04:11:58;99797.72;;;18.98;57.91
50268;BME280;36153;50.960;6.220;2023-08-30T04:14:59;99791.59;;;18.98;58.08
50268;BME280;36153;50.960;6.220;2023-08-30T04:18:00;99780.94;;;19.01;58.12
50268;BME280;36153;50.960;6.220;2023-08-30T04:21:00;99774.56;;;19.06;58.13
50268;BME280;36153;50.960;6.220;2023-08-30T04:24:02;99774.44;;;19.11;57.70
50268;BME280;36153;50.960;6.220;2023-08-30T04:27:04;99765.63;;;19.10;57.85
50268;BME280;36153;50.960;6.220;2023-08-30T04:30:04;99763.88;;;19.11;57.70
50268;BME280;36153;50.960;6.220;2023-08-30T04:33:05;99770.19;;;19.07;57.98
50268;BME280;36153;50.960;6.220;2023-08-30T04:36:06;99768.22;;;19.12;58.05
50268;BME280;36153;50.960;6.220;2023-08-30T04:39:06;99760.41;;;19.09;57.98
50268;BME280;36153;50.960;6.220;2023-08-30T04:42:06;99760.31;;;19.12;58.12
50268;BME280;36153;50.960;6.220;2023-08-30T04:45:07;99757.56;;;19.15;57.98
50268;BME280;36153;50.960;6.220;2023-08-30T04:48:08;99755.84;;;19.14;58.17
50268;BME280;36153;50.960;6.220;2023-08-30T04:51:08;99755.91;;;19.13;58.38
50268;BME280;36153;50.960;6.220;2023-08-30T04:54:08;99746.16;;;19.15;57.99
50268;BME280;36153;50.960;6.220;2023-08-30T04:57:09;99745.19;;;19.17;58.28
50268;BME280;36153;50.960;6.220;2023-08-30T05:00:12;99738.94;;;19.20;57.88
50268;BME280;36153;50.960;6.220;2023-08-30T05:03:13;99741.75;;;19.15;57.82
50268;BME280;36153;50.960;6.220;2023-08-30T05:06:13;99743.38;;;19.19;57.67
50268;BME280;36153;50.960;6.220;2023-08-30T05:09:16;99739.00;;;19.18;57.50
50268;BME280;36153;50.960;6.220;2023-08-30T05:12:16;99736.13;;;19.24;57.33
50268;BME280;36153;50.960;6.220;2023-08-30T05:15:17;99732.75;;;19.21;57.08
50268;BME280;36153;50.960;6.220;2023-08-30T05:18:19;99726.72;;;19.17;57.21
50268;BME280;36153;50.960;6.220;2023-08-30T05:21:19;99722.78;;;19.29;56.97
50268;BME280;36153;50.960;6.220;2023-08-30T05:24:20;99728.91;;;19.30;56.98
50268;BME280;36153;50.960;6.220;2023-08-30T05:27:20;99724.91;;;19.43;56.32
50268;BME280;36153;50.960;6.220;2023-08-30T05:30:20;99716.97;;;19.43;56.48
50268;BME280;36153;50.960;6.220;2023-08-30T05:33:21;99715.34;;;19.63;55.74
50268;BME280;36153;50.960;6.220;2023-08-30T05:36:21;99711.63;;;19.68;55.74
50268;BME280;36153;50.960;6.220;2023-08-30T05:39:22;99703.97;;;19.84;55.32
50268;BME280;36153;50.960;6.220;2023-08-30T05:42:22;99712.47;;;19.92;55.07
50268;BME280;36153;50.960;6.220;2023-08-30T05:45:22;99699.81;;;20.01;54.63
50268;BME280;36153;50.960;6.220;2023-08-30T05:48:23;99695.28;;;20.04;54.46
50268;BME280;36153;50.960;6.220;2023-08-30T05:51:23;99697.44;;;20.15;54.02
50268;BME280;36153;50.960;6.220;2023-08-30T05:54:23;99685.25;;;20.12;53.84
50268;BME280;36153;50.960;6.220;2023-08-30T05:57:26;99685.41;;;20.08;53.68
50268;BME280;36153;50.960;6.220;2023-08-30T06:00:29;99682.47;;;20.16;53.69
50268;BME280;36153;50.960;6.220;2023-08-30T06:03:29;99682.06;;;20.25;53.45
50268;BME280;36153;50.960;6.220;2023-08-30T06:06:30;99684.78;;;20.23;53.32
50268;BME280;36153;50.960;6.220;2023-08-30T06:09:30;99680.84;;;20.34;52.75
50268;BME280;36153;50.960;6.220;2023-08-30T06:12:30;99676.63;;;20.50;52.14
50268;BME280;36153;50.960;6.220;2023-08-30T06:15:30;99673.72;;;20.56;51.72
50268;BME280;36153;50.960;6.220;2023-08-30T06:18:31;99669.66;;;20.70;51.70
50268;BME280;36153;50.960;6.220;2023-08-30T06:21:35;99662.94;;;20.82;51.58
50268;BME280;36153;50.960;6.220;2023-08-30T06:24:35;99663.75;;;21.03;51.05
50268;BME280;36153;50.960;6.220;2023-08-30T06:27:41;99672.06;;;21.14;50.93
50268;BME280;36153;50.960;6.220;2023-08-30T06:30:43;99668.16;;;21.23;50.12
50268;BME280;36153;50.960;6.220;2023-08-30T06:33:43;99657.09;;;21.34;50.10
50268;BME280;36153;50.960;6.220;2023-08-30T06:36:44;99664.72;;;21.40;49.77
50268;BME280;36153;50.960;6.220;2023-08-30T06:39:44;99659.66;;;21.35;49.86
50268;BME280;36153;50.960;6.220;2023-08-30T06:42:45;99649.91;;;21.36;49.76
50268;BME280;36153;50.960;6.220;2023-08-30T06:45:45;99650.34;;;21.26;49.88
50268;BME280;36153;50.960;6.220;2023-08-30T06:48:46;99652.38;;;21.21;49.93
50268;BME280;36153;50.960;6.220;2023-08-30T06:51:46;99655.16;;;21.56;48.94
50268;BME280;36153;50.960;6.220;2023-08-30T06:54:47;99658.22;;;21.66;48.29
50268;BME280;36153;50.960;6.220;2023-08-30T06:57:48;99641.19;;;21.89;47.40
50268;BME280;36153;50.960;6.220;2023-08-30T07:00:52;99642.81;;;22.11;47.66
50268;BME280;36153;50.960;6.220;2023-08-30T07:03:52;99649.50;;;22.18;47.31
50268;BME280;36153;50.960;6.220;2023-08-30T07:06:52;99644.78;;;22.42;46.92
50268;BME280;36153;50.960;6.220;2023-08-30T07:09:53;99656.38;;;22.57;46.21
50268;BME280;36153;50.960;6.220;2023-08-30T07:12:53;99642.09;;;22.60;45.80
50268;BME280;36153;50.960;6.220;2023-08-30T07:15:53;99644.47;;;22.99;45.63
50268;BME280;36153;50.960;6.220;2023-08-30T07:18:54;99642.41;;;22.71;45.80
50268;BME280;36153;50.960;6.220;2023-08-30T07:21:54;99648.53;;;22.89;45.17
50268;BME280;36153;50.960;6.220;2023-08-30T07:24:55;99654.72;;;22.72;45.61
50268;BME280;36153;50.960;6.220;2023-08-30T07:27:55;99652.69;;;23.11;44.68
50268;BME280;36153;50.960;6.220;2023-08-30T07:31:02;99651.53;;;22.83;43.87
50268;BME280;36153;50.960;6.220;2023-08-30T07:34:03;99645.84;;;23.07;44.04
50268;BME280;36153;50.960;6.220;2023-08-30T07:37:04;99642.56;;;23.19;44.43
50268;BME280;36153;50.960;6.220;2023-08-30T07:40:04;99632.69;;;23.21;44.10
50268;BME280;36153;50.960;6.220;2023-08-30T07:43:05;99646.97;;;22.85;44.09
50268;BME280;36153;50.960;6.220;2023-08-30T07:46:05;99649.63;;;22.85;44.58
50268;BME280;36153;50.960;6.220;2023-08-30T07:49:05;99640.63;;;22.72;44.52
50268;BME280;36153;50.960;6.220;2023-08-30T07:52:06;99644.16;;;22.37;45.27
50268;BME280;36153;50.960;6.220;2023-08-30T07:55:08;99649.44;;;22.02;47.18
50268;BME280;36153;50.960;6.220;2023-08-30T07:58:09;99650.44;;;21.99;47.35
50268;BME280;36153;50.960;6.220;2023-08-30T08:01:10;99652.22;;;22.16;47.01
50268;BME280;36153;50.960;6.220;2023-08-30T08:04:10;99655.03;;;22.13;48.81
50268;BME280;36153;50.960;6.220;2023-08-30T08:07:11;99649.66;;;22.15;48.56
50268;BME280;36153;50.960;6.220;2023-08-30T08:10:11;99653.88;;;22.19;48.52
50268;BME280;36153;50.960;6.220;2023-08-30T08:13:11;99649.00;;;22.46;48.32
50268;BME280;36153;50.960;6.220;2023-08-30T08:16:13;99647.03;;;22.50;48.23
50268;BME280;36153;50.960;6.220;2023-08-30T08:19:13;99650.53;;;23.01;47.12
50268;BME280;36153;50.960;6.220;2023-08-30T08:22:13;99643.66;;;23.15;46.23
50268;BME280;36153;50.960;6.220;2023-08-30T08:25:14;99638.44;;;23.29;46.15
50268;BME280;36153;50.960;6.220;2023-08-30T08:28:14;99636.03;;;23.41;45.63
50268;BME280;36153;50.960;6.220;2023-08-30T08:31:16;99638.16;;;23.82;44.26
50268;BME280;36153;50.960;6.220;2023-08-30T08:34:16;99636.03;;;23.73;44.73
50268;BME280;36153;50.960;6.220;2023-08-30T08:37:16;99622.03;;;24.01;44.06
50268;BME280;36153;50.960;6.220;2023-08-30T08:40:17;99635.59;;;24.27;43.32
50268;BME280;36153;50.960;6.220;2023-08-30T08:43:18;99631.63;;;24.03;43.48
50268;BME280;36153;50.960;6.220;2023-08-30T08:46:20;99627.13;;;23.42;44.84
50268;BME280;36153;50.960;6.220;2023-08-30T08:49:21;99620.41;;;23.02;45.75
50268;BME280;36153;50.960;6.220;2023-08-30T08:52:23;99619.84;;;23.13;45.56
50268;BME280;36153;50.960;6.220;2023-08-30T08:55:24;99614.63;;;23.12;45.29
50268;BME280;36153;50.960;6.220;2023-08-30T08:58:26;99620.78;;;22.79;46.12
50268;BME280;36153;50.960;6.220;2023-08-30T09:01:27;99621.69;;;22.62;46.29
50268;BME280;36153;50.960;6.220;2023-08-30T09:04:32;99618.56;;;22.87;44.83
50268;BME280;36153;50.960;6.220;2023-08-30T09:07:33;99617.19;;;23.29;44.78
50268;BME280;36153;50.960;6.220;2023-08-30T09:10:34;99602.53;;;23.54;44.27
50268;BME280;36153;50.960;6.220;2023-08-30T09:13:35;99602.34;;;24.19;43.58
50268;BME280;36153;50.960;6.220;2023-08-30T09:16:36;99604.75;;;24.39;42.83
50268;BME280;36153;50.960;6.220;2023-08-30T09:19:40;99604.66;;;24.40;42.05
50268;BME280;36153;50.960;6.220;2023-08-30T09:22:42;99602.63;;;24.29;43.17
50268;BME280;36153;50.960;6.220;2023-08-30T09:25:44;99603.38;;;24.31;42.96
50268;BME280;36153;50.960;6.220;2023-08-30T09:28:45;99606.22;;;24.73;42.41
50268;BME280;36153;50.960;6.220;2023-08-30T09:31:50;99594.25;;;24.66;41.77
50268;BME280;36153;50.960;6.220;2023-08-30T09:34:51;99609.66;;;24.90;41.62
50268;BME280;36153;50.960;6.220;2023-08-30T09:37:52;99613.13;;;23.86;42.79
50268;BME280;36153;50.960;6.220;2023-08-30T09:41:05;99623.19;;;23.49;43.09
50268;BME280;36153;50.960;6.220;2023-08-30T09:44:18;99612.81;;;23.28;43.22
50268;BME280;36153;50.960;6.220;2023-08-30T09:47:19;99612.56;;;23.17;44.50
50268;BME280;36153;50.960;6.220;2023-08-30T09:50:20;99615.25;;;22.99;45.11
50268;BME280;36153;50.960;6.220;2023-08-30T09:53:25;99624.00;;;22.15;49.08
50268;BME280;36153;50.960;6.220;2023-08-30T09:56:31;99629.25;;;21.44;52.24
50268;BME280;36153;50.960;6.220;2023-08-30T09:59:33;99642.50;;;20.64;55.87
50268;BME280;36153;50.960;6.220;2023-08-30T10:02:34;99644.25;;;20.02;59.78
50268;BME280;36153;50.960;6.220;2023-08-30T10:05:35;99636.19;;;19.85;61.98
50268;BME280;36153;50.960;6.220;2023-08-30T10:08:36;99640.06;;;19.74;62.20
50268;BME280;36153;50.960;6.220;2023-08-30T10:11:39;99631.00;;;19.82;62.56
50268;BME280;36153;50.960;6.220;2023-08-30T10:14:40;99632.75;;;19.83;62.15
50268;BME280;36153;50.960;6.220;2023-08-30T10:17:44;99626.53;;;20.26;62.27
50268;BME280;36153;50.960;6.220;2023-08-30T10:20:46;99634.34;;;20.50;60.67
50268;BME280;36153;50.960;6.220;2023-08-30T10:23:49;99630.16;;;20.44;61.17
50268;BME280;36153;50.960;6.220;2023-08-30T10:26:52;99627.50;;;20.65;60.88
50268;BME280;36153;50.960;6.220;2023-08-30T10:29:54;99630.53;;;20.76;60.26
50268;BME280;36153;50.960;6.220;2023-08-30T10:32:55;99633.31;;;21.13;59.48
50268;BME280;36153;50.960;6.220;2023-08-30T10:36:04;99636.34;;;20.85;60.08
50268;BME280;36153;50.960;6.220;2023-08-30T10:39:14;99637.22;;;20.85;60.30
50268;BME280;36153;50.960;6.220;2023-08-30T10:42:15;99637.63;;;21.16;59.62
50268;BME280;36153;50.960;6.220;2023-08-30T10:45:23;99629.06;;;20.90;60.31
50268;BME280;36153;50.960;6.220;2023-08-30T10:48:33;99634.97;;;20.96;59.33
50268;BME280;36153;50.960;6.220;2023-08-30T10:51:38;99628.66;;;20.99;60.07
50268;BME280;36153;50.960;6.220;2023-08-30T10:54:39;99637.16;;;20.87;60.04
50268;BME280;36153;50.960;6.220;2023-08-30T10:57:44;99636.28;;;20.86;59.74
50268;BME280;36153;50.960;6.220;2023-08-30T11:00:46;99631.00;;;20.86;60.08
50268;BME280;36153;50.960;6.220;2023-08-30T11:03:47;99629.38;;;20.63;60.58
50268;BME280;36153;50.960;6.220;2023-08-30T11:06:51;99627.63;;;20.62;60.51
50268;BME280;36153;50.960;6.220;2023-08-30T11:09:52;99630.38;;;20.81;61.27
50268;BME280;36153;50.960;6.220;2023-08-30T11:12:52;99620.78;;;20.78;61.12
50268;BME280;36153;50.960;6.220;2023-08-30T11:15:53;99623.75;;;21.29;60.47
50268;BME280;36153;50.960;6.220;2023-08-30T11:18:53;99622.91;;;21.85;59.15
50268;BME280;36153;50.960;6.220;2023-08-30T11:21:54;99616.81;;;21.82;58.91
50268;BME280;36153;50.960;6.220;2023-08-30T11:24:54;99621.56;;;21.76;58.96
50268;BME280;36153;50.960;6.220;2023-08-30T11:28:04;99628.31;;;21.07;60.79
50268;BME280;36153;50.960;6.220;2023-08-30T11:31:05;99634.06;;;20.77;60.99
50268;BME280;36153;50.960;6.220;2023-08-30T11:34:05;99631.28;;;20.59;62.00
50268;BME280;36153;50.960;6.220;2023-08-30T11:37:07;99628.09;;;20.51;62.52
50268;BME280;36153;50.960;6.220;2023-08-30T11:40:08;99618.97;;;20.58;62.42
50268;BME280;36153;50.960;6.220;2023-08-30T11:43:11;99623.41;;;20.78;62.58
50268;BME280;36153;50.960;6.220;2023-08-30T11:46:11;99624.16;;;20.61;62.25
50268;BME280;36153;50.960;6.220;2023-08-30T11:49:12;99619.53;;;20.25;63.59
50268;BME280;36153;50.960;6.220;2023-08-30T11:52:13;99623.59;;;20.12;64.22
50268;BME280;36153;50.960;6.220;2023-08-30T11:55:14;99623.34;;;20.18;63.65
50268;BME280;36153;50.960;6.220;2023-08-30T11:58:17;99625.88;;;20.42;64.08
50268;BME280;36153;50.960;6.220;2023-08-30T12:01:18;99619.47;;;20.48;63.34
50268;BME280;36153;50.960;6.220;2023-08-30T12:04:19;99627.47;;;20.46;63.13
50268;BME280;36153;50.960;6.220;2023-08-30T12:07:24;99618.84;;;20.20;63.24
50268;BME280;36153;50.960;6.220;2023-08-30T12:10:24;99622.41;;;20.19;63.60
50268;BME280;36153;50.960;6.220;2023-08-30T12:13:26;99615.41;;;20.39;63.18
50268;BME280;36153;50.960;6.220;2023-08-30T12:16:26;99611.00;;;20.39;63.44
50268;BME280;36153;50.960;6.220;2023-08-30T12:19:28;99607.16;;;20.46;63.79
50268;BME280;36153;50.960;6.220;2023-08-30T12:22:41;99600.34;;;20.82;63.31
50268;BME280;36153;50.960;6.220;2023-08-30T12:25:42;99605.88;;;21.16;62.20
50268;BME280;36153;50.960;6.220;2023-08-30T12:28:42;99611.84;;;21.19;62.41
50268;BME280;36153;50.960;6.220;2023-08-30T12:31:45;99612.91;;;20.77;62.69
50268;BME280;36153;50.960;6.220;2023-08-30T12:34:46;99610.66;;;20.68;62.87
50268;BME280;36153;50.960;6.220;2023-08-30T12:37:46;99603.63;;;20.87;62.51
50268;BME280;36153;50.960;6.220;2023-08-30T12:40:48;99613.13;;;20.91;62.06
50268;BME280;36153;50.960;6.220;2023-08-30T12:43:50;99615.22;;;21.04;61.57
50268;BME280;36153;50.960;6.220;2023-08-30T12:46:52;99623.22;;;21.02;61.69
50268;BME280;36153;50.960;6.220;2023-08-30T12:49:52;99624.47;;;20.74;61.95
50268;BME280;36153;50.960;6.220;2023-08-30T12:52:53;99613.56;;;20.41;63.24
50268;BME280;36153;50.960;6.220;2023-08-30T12:55:53;99626.41;;;20.29;63.76
50268;BME280;36153;50.960;6.220;2023-08-30T12:58:54;99618.19;;;20.56;63.21
50268;BME280;36153;50.960;6.220;2023-08-30T13:01:54;99613.56;;;20.82;63.51
50268;BME280;36153;50.960;6.220;2023-08-30T13:04:54;99613.44;;;20.85;62.88
50268;BME280;36153;50.960;6.220;2023-08-30T13:07:55;99613.16;;;21.10;62.63
50268;BME280;36153;50.960;6.220;2023-08-30T13:10:55;99611.94;;;21.18;62.08
50268;BME280;36153;50.960;6.220;2023-08-30T13:13:55;99605.34;;;21.26;61.38
50268;BME280;36153;50.960;6.220;2023-08-30T13:16:58;99612.00;;;21.35;61.63
50268;BME280;36153;50.960;6.220;2023-08-30T13:19:58;99620.59;;;21.21;60.23
50268;BME280;36153;50.960;6.220;2023-08-30T13:22:59;99626.88;;;21.00;61.08
50268;BME280;36153;50.960;6.220;2023-08-30T13:25:59;99624.81;;;20.46;61.23
50268;BME280;36153;50.960;6.220;2023-08-30T13:28:59;99628.38;;;20.66;61.35
50268;BME280;36153;50.960;6.220;2023-08-30T13:32:03;99622.13;;;20.87;61.46
50268;BME280;36153;50.960;6.220;2023-08-30T13:35:04;99624.25;;;20.79;60.99
50268;BME280;36153;50.960;6.220;2023-08-30T13:38:04;99621.16;;;21.09;61.25
50268;BME280;36153;50.960;6.220;2023-08-30T13:41:05;99621.28;;;21.44;60.35
50268;BME280;36153;50.960;6.220;2023-08-30T13:44:05;99626.38;;;21.48;60.53
50268;BME280;36153;50.960;6.220;2023-08-30T13:47:06;99630.59;;;21.14;60.36
50268;BME280;36153;50.960;6.220;2023-08-30T13:50:06;99616.31;;;21.19;60.44
50268;BME280;36153;50.960;6.220;2023-08-30T13:53:07;99621.16;;;21.09;59.02
50268;BME280;36153;50.960;6.220;2023-08-30T13:56:07;99636.31;;;20.45;59.48
50268;BME280;36153;50.960;6.220;2023-08-30T13:59:07;99639.28;;;20.58;59.92
50268;BME280;36153;50.960;6.220;2023-08-30T14:02:08;99643.09;;;20.92;59.98
50268;BME280;36153;50.960;6.220;2023-08-30T14:05:09;99650.16;;;20.91;58.16
50268;BME280;36153;50.960;6.220;2023-08-30T14:08:09;99639.88;;;20.85;58.24
50268;BME280;36153;50.960;6.220;2023-08-30T14:11:10;99633.03;;;21.19;57.47
50268;BME280;36153;50.960;6.220;2023-08-30T14:14:10;99632.72;;;21.44;57.03
50268;BME280;36153;50.960;6.220;2023-08-30T14:17:10;99630.31;;;21.40;56.18
50268;BME280;36153;50.960;6.220;2023-08-30T14:20:11;99626.81;;;21.95;56.04
50268;BME280;36153;50.960;6.220;2023-08-30T14:23:12;99631.47;;;22.07;54.00
50268;BME280;36153;50.960;6.220;2023-08-30T14:26:13;99634.53;;;21.99;54.17
50268;BME280;36153;50.960;6.220;2023-08-30T14:29:13;99638.06;;;22.53;54.57
50268;BME280;36153;50.960;6.220;2023-08-30T14:32:14;99636.13;;;22.56;53.55
50268;BME280;36153;50.960;6.220;2023-08-30T14:35:14;99633.56;;;22.88;53.63
50268;BME280;36153;50.960;6.220;2023-08-30T14:38:14;99632.09;;;23.48;52.63
50268;BME280;36153;50.960;6.220;2023-08-30T14:41:15;99627.63;;;23.32;50.72
50268;BME280;36153;50.960;6.220;2023-08-30T14:44:17;99627.41;;;23.37;50.63
50268;BME280;36153;50.960;6.220;2023-08-30T14:50:18;99630.09;;;23.04;53.05
50268;BME280;36153;50.960;6.220;2023-08-30T14:53:18;99626.91;;;22.46;53.93
50268;BME280;36153;50.960;6.220;2023-08-30T14:56:19;99624.34;;;22.44;54.74
50268;BME280;36153;50.960;6.220;2023-08-30T14:59:19;99622.81;;;22.74;54.11
50268;BME280;36153;50.960;6.220;2023-08-30T15:02:19;99627.09;;;23.10;53.35
50268;BME280;36153;50.960;6.220;2023-08-30T15:05:20;99627.47;;;23.51;51.83
50268;BME280;36153;50.960;6.220;2023-08-30T15:08:22;99622.59;;;23.60;51.99
50268;BME280;36153;50.960;6.220;2023-08-30T15:11:22;99628.94;;;23.73;51.87
50268;BME280;36153;50.960;6.220;2023-08-30T15:14:24;99622.91;;;24.16;51.41
50268;BME280;36153;50.960;6.220;2023-08-30T15:17:24;99625.97;;;23.94;50.91
50268;BME280;36153;50.960;6.220;2023-08-30T15:20:24;99622.91;;;23.69;51.89
50268;BME280;36153;50.960;6.220;2023-08-30T15:23:25;99613.91;;;23.88;51.54
50268;BME280;36153;50.960;6.220;2023-08-30T15:26:25;99613.09;;;24.02;51.42
50268;BME280;36153;50.960;6.220;2023-08-30T15:29:26;99610.22;;;24.21;50.88
50268;BME280;36153;50.960;6.220;2023-08-30T15:32:26;99618.38;;;23.72;50.97
50268;BME280;36153;50.960;6.220;2023-08-30T15:35:28;99614.94;;;24.16;50.99
50268;BME280;36153;50.960;6.220;2023-08-30T15:38:28;99609.06;;;24.11;50.82
50268;BME280;36153;50.960;6.220;2023-08-30T15:41:29;99607.69;;;24.03;50.67
50268;BME280;36153;50.960;6.220;2023-08-30T15:44:29;99615.28;;;23.95;50.79
50268;BME280;36153;50.960;6.220;2023-08-30T15:47:31;99617.97;;;24.10;50.54
50268;BME280;36153;50.960;6.220;2023-08-30T15:50:32;99610.97;;;23.77;51.01
50268;BME280;36153;50.960;6.220;2023-08-30T15:53:33;99615.09;;;23.02;51.03
50268;BME280;36153;50.960;6.220;2023-08-30T15:56:34;99625.97;;;22.64;53.05
50268;BME280;36153;50.960;6.220;2023-08-30T15:59:34;99629.97;;;22.38;53.73
50268;BME280;36153;50.960;6.220;2023-08-30T16:02:34;99635.50;;;22.33;54.34
50268;BME280;36153;50.960;6.220;2023-08-30T16:05:36;99630.06;;;22.37;54.03